sensor_id;sensor_type;location;lat;lon;timestamp;P1;durP1;ratioP1;P2;durP2;ratioP2
1410;SDS011;700;51.906;8.404;2022-11-11T00:03:17;7.00;;;3.80;;
1410;SDS011;700;51.906;8.404;2022-11-11T00:08:17;3.70;;;2.87;;
1410;SDS011;700;51.906;8.404;2022-11-11T00:13:21;6.13;;;3.23;;
1410;SDS011;700;51.906;8.404;2022-11-11T00:18:24;4.80;;;3.13;;
1410;SDS011;700;51.906;8.404;2022-11-11T00:23:43;5.03;;;2.60;;
1410;SDS011;700;51.906;8.404;2022-11-11T00:29:03;7.53;;;4.20;;
1410;SDS011;700;51.906;8.404;2022-11-11T00:34:03;7.47;;;3.50;;
1410;SDS011;700;51.906;8.404;2022-11-11T00:39:04;9.23;;;3.77;;
1410;SDS011;700;51.906;8.404;2022-11-11T00:44:04;5.63;;;3.70;;
1410;SDS011;700;51.906;8.404;2022-11-11T00:49:06;6.30;;;3.50;;
1410;SDS011;700;51.906;8.404;2022-11-11T00:54:27;12.73;;;4.70;;
1410;SDS011;700;51.906;8.404;2022-11-11T00:59:28;7.13;;;3.83;;
1410;SDS011;700;51.906;8.404;2022-11-11T01:04:31;7.10;;;4.10;;
1410;SDS011;700;51.906;8.404;2022-11-11T01:09:34;8.27;;;3.87;;
1410;SDS011;700;51.906;8.404;2022-11-11T01:14:37;7.10;;;4.20;;
1410;SDS011;700;51.906;8.404;2022-11-11T01:19:38;6.07;;;3.83;;
1410;SDS011;700;51.906;8.404;2022-11-11T01:24:38;5.57;;;3.60;;
1410;SDS011;700;51.906;8.404;2022-11-11T01:29:39;5.00;;;3.70;;
1410;SDS011;700;51.906;8.404;2022-11-11T01:34:39;7.03;;;3.47;;
1410;SDS011;700;51.906;8.404;2022-11-11T01:39:40;7.93;;;4.07;;
1410;SDS011;700;51.906;8.404;2022-11-11T01:44:42;6.07;;;4.33;;
1410;SDS011;700;51.906;8.404;2022-11-11T01:55:12;5.97;;;3.80;;
1410;SDS011;700;51.906;8.404;2022-11-11T02:00:18;5.20;;;3.90;;
1410;SDS011;700;51.906;8.404;2022-11-11T02:05:20;5.93;;;3.90;;
1410;SDS011;700;51.906;8.404;2022-11-11T02:10:43;4.83;;;3.67;;
1410;SDS011;700;51.906;8.404;2022-11-11T02:15:45;6.00;;;3.33;;
1410;SDS011;700;51.906;8.404;2022-11-11T02:20:46;8.13;;;3.60;;
1410;SDS011;700;51.906;8.404;2022-11-11T02:25:48;9.13;;;3.90;;
1410;SDS011;700;51.906;8.404;2022-11-11T02:30:56;7.93;;;4.20;;
1410;SDS011;700;51.906;8.404;2022-11-11T02:35:56;5.83;;;4.77;;
1410;SDS011;700;51.906;8.404;2022-11-11T02:40:59;6.83;;;4.00;;
1410;SDS011;700;51.906;8.404;2022-11-11T02:46:19;6.77;;;3.73;;
1410;SDS011;700;51.906;8.404;2022-11-11T02:51:19;8.27;;;5.47;;
1410;SDS011;700;51.906;8.404;2022-11-11T02:56:22;5.13;;;4.30;;
1410;SDS011;700;51.906;8.404;2022-11-11T03:01:45;5.60;;;4.20;;
1410;SDS011;700;51.906;8.404;2022-11-11T03:06:50;6.23;;;4.00;;
1410;SDS011;700;51.906;8.404;2022-11-11T03:11:50;6.50;;;4.37;;
1410;SDS011;700;51.906;8.404;2022-11-11T03:16:53;9.00;;;4.50;;
1410;SDS011;700;51.906;8.404;2022-11-11T03:22:13;6.33;;;4.40;;
1410;SDS011;700;51.906;8.404;2022-11-11T03:27:13;4.07;;;3.47;;
1410;SDS011;700;51.906;8.404;2022-11-11T03:32:16;5.00;;;4.30;;
1410;SDS011;700;51.906;8.404;2022-11-11T03:37:19;8.63;;;4.30;;
1410;SDS011;700;51.906;8.404;2022-11-11T03:42:38;9.73;;;3.70;;
1410;SDS011;700;51.906;8.404;2022-11-11T03:47:41;7.40;;;3.70;;
1410;SDS011;700;51.906;8.404;2022-11-11T03:52:43;5.50;;;3.30;;
1410;SDS011;700;51.906;8.404;2022-11-11T03:57:46;4.30;;;3.90;;
1410;SDS011;700;51.906;8.404;2022-11-11T04:02:47;5.37;;;4.47;;
1410;SDS011;700;51.906;8.404;2022-11-11T04:08:09;5.70;;;4.13;;
1410;SDS011;700;51.906;8.404;2022-11-11T04:13:33;8.33;;;4.17;;
1410;SDS011;700;51.906;8.404;2022-11-11T04:18:56;5.23;;;4.10;;
1410;SDS011;700;51.906;8.404;2022-11-11T04:24:19;6.30;;;3.93;;
1410;SDS011;700;51.906;8.404;2022-11-11T04:29:39;10.53;;;3.97;;
1410;SDS011;700;51.906;8.404;2022-11-11T04:34:44;4.90;;;4.13;;
1410;SDS011;700;51.906;8.404;2022-11-11T04:39:48;9.90;;;4.53;;
1410;SDS011;700;51.906;8.404;2022-11-11T04:45:11;7.90;;;4.43;;
1410;SDS011;700;51.906;8.404;2022-11-11T04:50:38;6.57;;;4.03;;
1410;SDS011;700;51.906;8.404;2022-11-11T04:55:43;6.80;;;3.70;;
1410;SDS011;700;51.906;8.404;2022-11-11T05:01:03;7.07;;;4.20;;
1410;SDS011;700;51.906;8.404;2022-11-11T05:06:06;9.50;;;4.60;;
1410;SDS011;700;51.906;8.404;2022-11-11T05:11:26;7.30;;;3.67;;
1410;SDS011;700;51.906;8.404;2022-11-11T05:16:31;6.53;;;4.10;;
1410;SDS011;700;51.906;8.404;2022-11-11T05:22:05;10.00;;;3.70;;
1410;SDS011;700;51.906;8.404;2022-11-11T05:27:06;7.20;;;4.10;;
1410;SDS011;700;51.906;8.404;2022-11-11T05:32:10;5.77;;;3.93;;
1410;SDS011;700;51.906;8.404;2022-11-11T05:37:16;10.17;;;5.10;;
1410;SDS011;700;51.906;8.404;2022-11-11T05:42:17;7.50;;;4.70;;
1410;SDS011;700;51.906;8.404;2022-11-11T05:47:18;9.67;;;5.37;;
1410;SDS011;700;51.906;8.404;2022-11-11T05:52:18;7.47;;;4.40;;
1410;SDS011;700;51.906;8.404;2022-11-11T05:57:24;7.53;;;4.30;;
1410;SDS011;700;51.906;8.404;2022-11-11T06:02:26;7.60;;;4.63;;
1410;SDS011;700;51.906;8.404;2022-11-11T06:07:27;6.60;;;4.80;;
1410;SDS011;700;51.906;8.404;2022-11-11T06:12:28;5.30;;;4.40;;
1410;SDS011;700;51.906;8.404;2022-11-11T06:17:48;6.30;;;4.33;;
1410;SDS011;700;51.906;8.404;2022-11-11T06:22:51;7.50;;;5.00;;
1410;SDS011;700;51.906;8.404;2022-11-11T06:28:00;6.80;;;4.83;;
1410;SDS011;700;51.906;8.404;2022-11-11T06:33:01;7.13;;;5.30;;
1410;SDS011;700;51.906;8.404;2022-11-11T06:38:05;5.60;;;4.60;;
1410;SDS011;700;51.906;8.404;2022-11-11T06:43:09;7.37;;;4.90;;
1410;SDS011;700;51.906;8.404;2022-11-11T06:48:10;8.83;;;5.00;;
1410;SDS011;700;51.906;8.404;2022-11-11T06:53:12;5.80;;;5.20;;
1410;SDS011;700;51.906;8.404;2022-11-11T06:58:14;6.70;;;4.83;;
1410;SDS011;700;51.906;8.404;2022-11-11T07:03:17;7.20;;;4.77;;
1410;SDS011;700;51.906;8.404;2022-11-11T07:08:19;7.10;;;4.60;;
1410;SDS011;700;51.906;8.404;2022-11-11T07:13:22;7.73;;;3.50;;
1410;SDS011;700;51.906;8.404;2022-11-11T07:18:25;4.47;;;4.00;;
1410;SDS011;700;51.906;8.404;2022-11-11T07:23:26;9.20;;;3.67;;
1410;SDS011;700;51.906;8.404;2022-11-11T07:28:29;8.43;;;5.70;;
1410;SDS011;700;51.906;8.404;2022-11-11T07:33:29;6.57;;;4.63;;
1410;SDS011;700;51.906;8.404;2022-11-11T07:38:30;8.47;;;4.47;;
1410;SDS011;700;51.906;8.404;2022-11-11T07:43:31;7.23;;;3.50;;
1410;SDS011;700;51.906;8.404;2022-11-11T07:53:41;6.00;;;3.97;;
1410;SDS011;700;51.906;8.404;2022-11-11T07:58:42;8.80;;;4.20;;
1410;SDS011;700;51.906;8.404;2022-11-11T08:03:43;5.40;;;3.70;;
1410;SDS011;700;51.906;8.404;2022-11-11T08:08:54;8.30;;;3.53;;
1410;SDS011;700;51.906;8.404;2022-11-11T08:13:55;5.27;;;3.70;;
1410;SDS011;700;51.906;8.404;2022-11-11T08:18:58;7.33;;;3.30;;
1410;SDS011;700;51.906;8.404;2022-11-11T08:23:59;11.47;;;3.60;;
1410;SDS011;700;51.906;8.404;2022-11-11T08:28:59;5.17;;;3.23;;
1410;SDS011;700;51.906;8.404;2022-11-11T08:34:00;6.60;;;2.80;;
1410;SDS011;700;51.906;8.404;2022-11-11T08:39:00;4.03;;;2.90;;
1410;SDS011;700;51.906;8.404;2022-11-11T08:44:01;4.90;;;3.67;;
1410;SDS011;700;51.906;8.404;2022-11-11T08:49:03;5.50;;;3.20;;
1410;SDS011;700;51.906;8.404;2022-11-11T08:54:06;3.60;;;2.53;;
1410;SDS011;700;51.906;8.404;2022-11-11T08:59:09;5.27;;;2.70;;
1410;SDS011;700;51.906;8.404;2022-11-11T09:04:10;4.60;;;3.03;;
1410;SDS011;700;51.906;8.404;2022-11-11T09:09:11;4.07;;;2.97;;
1410;SDS011;700;51.906;8.404;2022-11-11T09:14:12;6.23;;;3.70;;
1410;SDS011;700;51.906;8.404;2022-11-11T09:19:15;4.20;;;3.67;;
1410;SDS011;700;51.906;8.404;2022-11-11T09:24:15;5.00;;;3.03;;
1410;SDS011;700;51.906;8.404;2022-11-11T09:29:17;6.00;;;3.23;;
1410;SDS011;700;51.906;8.404;2022-11-11T09:34:18;9.07;;;3.00;;
1410;SDS011;700;51.906;8.404;2022-11-11T09:39:19;4.63;;;2.77;;
1410;SDS011;700;51.906;8.404;2022-11-11T09:44:39;4.93;;;3.50;;
1410;SDS011;700;51.906;8.404;2022-11-11T10:00:20;6.27;;;4.07;;
1410;SDS011;700;51.906;8.404;2022-11-11T10:10:48;5.17;;;2.50;;
1410;SDS011;700;51.906;8.404;2022-11-11T10:21:25;3.30;;;2.60;;
1410;SDS011;700;51.906;8.404;2022-11-11T10:26:50;5.80;;;2.77;;
1410;SDS011;700;51.906;8.404;2022-11-11T10:31:56;4.20;;;3.10;;
1410;SDS011;700;51.906;8.404;2022-11-11T10:37:08;5.43;;;2.57;;
1410;SDS011;700;51.906;8.404;2022-11-11T10:42:18;4.63;;;2.83;;
1410;SDS011;700;51.906;8.404;2022-11-11T10:47:32;4.30;;;2.43;;
1410;SDS011;700;51.906;8.404;2022-11-11T10:52:44;4.20;;;2.83;;
1410;SDS011;700;51.906;8.404;2022-11-11T10:58:02;4.13;;;2.00;;
1410;SDS011;700;51.906;8.404;2022-11-11T11:03:13;3.70;;;2.30;;
1410;SDS011;700;51.906;8.404;2022-11-11T11:08:19;4.73;;;1.93;;
1410;SDS011;700;51.906;8.404;2022-11-11T11:13:31;3.10;;;1.60;;
1410;SDS011;700;51.906;8.404;2022-11-11T11:18:33;3.43;;;1.80;;
1410;SDS011;700;51.906;8.404;2022-11-11T11:28:35;3.00;;;1.60;;
1410;SDS011;700;51.906;8.404;2022-11-11T11:33:58;3.50;;;1.40;;
1410;SDS011;700;51.906;8.404;2022-11-11T11:38:59;3.30;;;1.10;;
1410;SDS011;700;51.906;8.404;2022-11-11T11:44:00;2.57;;;1.27;;
1410;SDS011;700;51.906;8.404;2022-11-11T11:49:10;3.20;;;1.40;;
1410;SDS011;700;51.906;8.404;2022-11-11T12:05:19;3.80;;;1.40;;
1410;SDS011;700;51.906;8.404;2022-11-11T12:10:34;3.47;;;1.10;;
1410;SDS011;700;51.906;8.404;2022-11-11T12:21:20;2.20;;;1.33;;
1410;SDS011;700;51.906;8.404;2022-11-11T12:53:58;3.10;;;1.00;;
1410;SDS011;700;51.906;8.404;2022-11-11T12:59:09;2.30;;;1.17;;
1410;SDS011;700;51.906;8.404;2022-11-11T13:04:32;5.03;;;1.13;;
1410;SDS011;700;51.906;8.404;2022-11-11T13:14:55;3.47;;;1.30;;
1410;SDS011;700;51.906;8.404;2022-11-11T13:20:02;2.43;;;1.10;;
1410;SDS011;700;51.906;8.404;2022-11-11T13:25:21;5.00;;;1.00;;
1410;SDS011;700;51.906;8.404;2022-11-11T13:30:43;2.13;;;1.20;;
1410;SDS011;700;51.906;8.404;2022-11-11T13:36:01;2.00;;;1.13;;
1410;SDS011;700;51.906;8.404;2022-11-11T13:41:06;2.37;;;1.20;;
1410;SDS011;700;51.906;8.404;2022-11-11T13:46:14;5.20;;;1.03;;
1410;SDS011;700;51.906;8.404;2022-11-11T13:51:33;2.40;;;1.10;;
1410;SDS011;700;51.906;8.404;2022-11-11T13:56:44;2.80;;;1.10;;
1410;SDS011;700;51.906;8.404;2022-11-11T14:01:49;2.13;;;1.00;;
1410;SDS011;700;51.906;8.404;2022-11-11T14:17:50;2.47;;;0.97;;
1410;SDS011;700;51.906;8.404;2022-11-11T14:22:52;2.70;;;1.20;;
1410;SDS011;700;51.906;8.404;2022-11-11T14:27:53;4.00;;;1.10;;
1410;SDS011;700;51.906;8.404;2022-11-11T14:32:56;3.13;;;1.57;;
1410;SDS011;700;51.906;8.404;2022-11-11T14:38:11;2.27;;;1.10;;
1410;SDS011;700;51.906;8.404;2022-11-11T14:53:58;3.20;;;1.00;;
1410;SDS011;700;51.906;8.404;2022-11-11T14:59:03;4.30;;;1.50;;
1410;SDS011;700;51.906;8.404;2022-11-11T15:04:06;3.23;;;1.47;;
1410;SDS011;700;51.906;8.404;2022-11-11T15:09:13;3.63;;;1.40;;
1410;SDS011;700;51.906;8.404;2022-11-11T15:35:49;3.73;;;1.60;;
1410;SDS011;700;51.906;8.404;2022-11-11T15:41:02;3.47;;;1.37;;
1410;SDS011;700;51.906;8.404;2022-11-11T15:46:03;3.30;;;1.30;;
1410;SDS011;700;51.906;8.404;2022-11-11T15:51:27;2.30;;;1.33;;
1410;SDS011;700;51.906;8.404;2022-11-11T15:56:30;3.30;;;1.40;;
1410;SDS011;700;51.906;8.404;2022-11-11T16:01:32;4.20;;;1.43;;
1410;SDS011;700;51.906;8.404;2022-11-11T16:06:34;3.70;;;1.83;;
1410;SDS011;700;51.906;8.404;2022-11-11T16:11:37;4.40;;;2.70;;
1410;SDS011;700;51.906;8.404;2022-11-11T16:16:41;5.40;;;2.23;;
1410;SDS011;700;51.906;8.404;2022-11-11T16:21:45;3.80;;;2.13;;
1410;SDS011;700;51.906;8.404;2022-11-11T16:26:54;5.50;;;2.30;;
1410;SDS011;700;51.906;8.404;2022-11-11T16:31:58;5.83;;;3.20;;
1410;SDS011;700;51.906;8.404;2022-11-11T16:37:05;5.37;;;3.20;;
1410;SDS011;700;51.906;8.404;2022-11-11T16:47:39;7.03;;;3.77;;
1410;SDS011;700;51.906;8.404;2022-11-11T16:57:55;4.77;;;3.77;;
1410;SDS011;700;51.906;8.404;2022-11-11T17:03:23;7.43;;;3.73;;
1410;SDS011;700;51.906;8.404;2022-11-11T17:08:38;5.57;;;3.57;;
1410;SDS011;700;51.906;8.404;2022-11-11T17:13:40;7.87;;;4.70;;
1410;SDS011;700;51.906;8.404;2022-11-11T17:18:43;7.93;;;5.03;;
1410;SDS011;700;51.906;8.404;2022-11-11T17:23:47;9.80;;;6.47;;
1410;SDS011;700;51.906;8.404;2022-11-11T17:28:47;10.07;;;7.60;;
1410;SDS011;700;51.906;8.404;2022-11-11T17:33:48;9.17;;;7.23;;
1410;SDS011;700;51.906;8.404;2022-11-11T17:38:49;11.87;;;9.07;;
1410;SDS011;700;51.906;8.404;2022-11-11T17:43:52;16.87;;;8.60;;
1410;SDS011;700;51.906;8.404;2022-11-11T17:48:58;10.50;;;7.90;;
1410;SDS011;700;51.906;8.404;2022-11-11T17:53:58;10.83;;;7.70;;
1410;SDS011;700;51.906;8.404;2022-11-11T17:58:59;10.27;;;7.83;;
1410;SDS011;700;51.906;8.404;2022-11-11T18:04:02;11.30;;;7.43;;
1410;SDS011;700;51.906;8.404;2022-11-11T18:09:05;12.37;;;9.53;;
1410;SDS011;700;51.906;8.404;2022-11-11T18:14:06;13.40;;;11.83;;
1410;SDS011;700;51.906;8.404;2022-11-11T18:19:07;13.10;;;10.80;;
1410;SDS011;700;51.906;8.404;2022-11-11T18:24:10;15.80;;;11.63;;
1410;SDS011;700;51.906;8.404;2022-11-11T18:29:11;13.87;;;10.90;;
1410;SDS011;700;51.906;8.404;2022-11-11T18:34:11;15.57;;;10.63;;
1410;SDS011;700;51.906;8.404;2022-11-11T18:39:14;18.77;;;12.30;;
1410;SDS011;700;51.906;8.404;2022-11-11T18:44:15;19.20;;;14.40;;
1410;SDS011;700;51.906;8.404;2022-11-11T18:49:16;16.57;;;12.63;;
1410;SDS011;700;51.906;8.404;2022-11-11T18:54:16;15.00;;;12.13;;
1410;SDS011;700;51.906;8.404;2022-11-11T18:59:17;14.90;;;12.40;;
1410;SDS011;700;51.906;8.404;2022-11-11T19:04:21;14.20;;;11.90;;
1410;SDS011;700;51.906;8.404;2022-11-11T19:09:22;16.20;;;14.10;;
1410;SDS011;700;51.906;8.404;2022-11-11T19:14:28;19.67;;;13.33;;
1410;SDS011;700;51.906;8.404;2022-11-11T19:19:28;18.70;;;15.13;;
1410;SDS011;700;51.906;8.404;2022-11-11T19:24:31;21.30;;;16.40;;
1410;SDS011;700;51.906;8.404;2022-11-11T19:29:32;18.67;;;16.67;;
1410;SDS011;700;51.906;8.404;2022-11-11T19:34:35;18.73;;;16.73;;
1410;SDS011;700;51.906;8.404;2022-11-11T19:39:41;21.20;;;15.60;;
1410;SDS011;700;51.906;8.404;2022-11-11T19:44:44;18.40;;;15.57;;
1410;SDS011;700;51.906;8.404;2022-11-11T19:50:06;23.83;;;15.00;;
1410;SDS011;700;51.906;8.404;2022-11-11T19:55:15;21.60;;;15.73;;
1410;SDS011;700;51.906;8.404;2022-11-11T20:00:34;19.83;;;15.30;;
1410;SDS011;700;51.906;8.404;2022-11-11T20:05:35;24.80;;;16.83;;
1410;SDS011;700;51.906;8.404;2022-11-11T20:10:37;20.67;;;16.63;;
1410;SDS011;700;51.906;8.404;2022-11-11T20:15:41;22.07;;;19.10;;
1410;SDS011;700;51.906;8.404;2022-11-11T20:20:44;22.70;;;17.50;;
1410;SDS011;700;51.906;8.404;2022-11-11T20:25:47;29.37;;;20.47;;
1410;SDS011;700;51.906;8.404;2022-11-11T20:30:52;24.10;;;16.80;;
1410;SDS011;700;51.906;8.404;2022-11-11T20:35:53;22.33;;;17.07;;
1410;SDS011;700;51.906;8.404;2022-11-11T20:40:58;20.77;;;16.00;;
1410;SDS011;700;51.906;8.404;2022-11-11T20:46:04;20.10;;;15.10;;
1410;SDS011;700;51.906;8.404;2022-11-11T20:51:08;19.57;;;15.30;;
1410;SDS011;700;51.906;8.404;2022-11-11T20:56:14;18.40;;;14.53;;
1410;SDS011;700;51.906;8.404;2022-11-11T21:01:17;18.43;;;13.63;;
1410;SDS011;700;51.906;8.404;2022-11-11T21:06:21;15.10;;;12.70;;
1410;SDS011;700;51.906;8.404;2022-11-11T21:11:25;19.57;;;13.60;;
1410;SDS011;700;51.906;8.404;2022-11-11T21:16:27;17.70;;;14.00;;
1410;SDS011;700;51.906;8.404;2022-11-11T21:21:31;23.63;;;14.53;;
1410;SDS011;700;51.906;8.404;2022-11-11T21:26:33;19.60;;;14.10;;
1410;SDS011;700;51.906;8.404;2022-11-11T21:31:37;16.27;;;13.00;;
1410;SDS011;700;51.906;8.404;2022-11-11T21:36:39;13.47;;;11.30;;
1410;SDS011;700;51.906;8.404;2022-11-11T21:41:41;12.20;;;10.60;;
1410;SDS011;700;51.906;8.404;2022-11-11T21:46:44;13.57;;;10.60;;
1410;SDS011;700;51.906;8.404;2022-11-11T21:51:46;14.43;;;9.53;;
1410;SDS011;700;51.906;8.404;2022-11-11T21:56:49;10.87;;;9.00;;
1410;SDS011;700;51.906;8.404;2022-11-11T22:01:53;14.00;;;10.67;;
1410;SDS011;700;51.906;8.404;2022-11-11T22:06:56;13.00;;;10.20;;
1410;SDS011;700;51.906;8.404;2022-11-11T22:11:57;12.60;;;9.47;;
1410;SDS011;700;51.906;8.404;2022-11-11T22:16:57;12.10;;;9.63;;
1410;SDS011;700;51.906;8.404;2022-11-11T22:21:58;15.33;;;10.30;;
1410;SDS011;700;51.906;8.404;2022-11-11T22:26:58;14.80;;;9.70;;
1410;SDS011;700;51.906;8.404;2022-11-11T22:32:02;12.93;;;9.70;;
1410;SDS011;700;51.906;8.404;2022-11-11T22:37:03;12.20;;;9.77;;
1410;SDS011;700;51.906;8.404;2022-11-11T22:42:03;13.33;;;10.33;;
1410;SDS011;700;51.906;8.404;2022-11-11T22:47:04;12.70;;;10.23;;
1410;SDS011;700;51.906;8.404;2022-11-11T22:52:07;15.60;;;10.37;;
1410;SDS011;700;51.906;8.404;2022-11-11T22:57:10;10.40;;;8.60;;
1410;SDS011;700;51.906;8.404;2022-11-11T23:02:13;10.47;;;8.43;;
1410;SDS011;700;51.906;8.404;2022-11-11T23:07:13;15.00;;;10.00;;
1410;SDS011;700;51.906;8.404;2022-11-11T23:12:18;12.63;;;8.97;;
1410;SDS011;700;51.906;8.404;2022-11-11T23:17:19;10.30;;;8.47;;
1410;SDS011;700;51.906;8.404;2022-11-11T23:22:20;8.20;;;7.40;;
1410;SDS011;700;51.906;8.404;2022-11-11T23:27:21;9.93;;;7.00;;
1410;SDS011;700;51.906;8.404;2022-11-11T23:32:24;15.03;;;6.87;;
1410;SDS011;700;51.906;8.404;2022-11-11T23:37:24;8.40;;;6.37;;
1410;SDS011;700;51.906;8.404;2022-11-11T23:42:25;8.07;;;6.47;;
1410;SDS011;700;51.906;8.404;2022-11-11T23:47:25;7.53;;;6.73;;
1410;SDS011;700;51.906;8.404;2022-11-11T23:52:26;11.13;;;7.03;;
1410;SDS011;700;51.906;8.404;2022-11-11T23:57:26;7.40;;;6.50;;
